West Middletown, Pennsylvania
Current Conditions -  °F | °C
As of 11:15 PM on Thursday 27 Nov 2014 (Local Time) from KAFJ Reporting Station
Overcast Overcast  
Wind Chill: 21°   Ceiling: 1600
Heat Index: 28°   Visibility: 10mi
Dew Point: 23°   Wind: 7mph
Humidity: 80%   Direction: 270°W
Pressure: 30.23"   Gusts: NA
Location:  40.24°N, 80.43°W
Report Text: KAFJ 280415Z 27006KT 10SM BKN016 BKN022 OVC027 M02/M05 A3023 RMK AO1
Loading
Personal Weather Stations






























Interactive Weather Map New forecast layout! Learn more

10-Day Weather Forecast

Advertisements
Track Severe Weather on mobile